Time;durP1;ratioP1;P1;durP2;ratioP2;P2;SDS_P1;SDS_P2;PMS_P1;PMS_P2;Temp;Humidity;BMP_temperature;BMP_pressure;BME280_temperature;BME280_humidity;BME280_pressure;Samples;Min_cycle;Max_cycle;Signal;HPM_P1;HPM_P2
2022/10/06 00:00:28;;;;;;;1.30;0.60;;;13.80;99.90;;;;;;5097173;28;20212;-76
2022/10/06 00:02:54;;;;;;;0.93;0.50;;;13.90;99.90;;;;;;5096922;28;20181;-76
2022/10/06 00:05:19;;;;;;;0.70;0.60;;;13.80;99.90;;;;;;5096882;28;20559;-76
2022/10/06 00:07:45;;;;;;;2.53;0.80;;;13.80;99.90;;;;;;5096766;28;20212;-76
2022/10/06 00:10:10;;;;;;;1.80;0.60;;;13.80;99.90;;;;;;5096832;28;20174;-76
2022/10/06 00:12:39;;;;;;;1.67;0.80;;;13.80;99.90;;;;;;5094960;28;20177;-76
2022/10/06 00:15:06;;;;;;;3.97;0.90;;;13.80;99.90;;;;;;5095993;28;20284;-76
2022/10/06 00:17:31;;;;;;;6.13;0.80;;;13.80;99.90;;;;;;5096462;28;20162;-76
2022/10/06 00:19:57;;;;;;;5.13;0.70;;;13.80;99.90;;;;;;5094858;28;20257;-76
2022/10/06 00:22:22;;;;;;;3.23;0.70;;;13.80;99.90;;;;;;5096129;28;20655;-76
2022/10/06 00:24:48;;;;;;;1.80;0.70;;;13.80;99.90;;;;;;5096247;28;20195;-76
2022/10/06 00:27:13;;;;;;;2.47;0.70;;;13.80;99.90;;;;;;5094696;28;20174;-75
2022/10/06 00:29:41;;;;;;;1.53;0.67;;;13.80;99.90;;;;;;5094783;28;20174;-76
2022/10/06 00:32:08;;;;;;;3.47;1.30;;;13.80;99.90;;;;;;5094647;28;20185;-76
2022/10/06 00:34:35;;;;;;;1.13;0.60;;;13.80;99.90;;;;;;5095684;28;20263;-76
2022/10/06 00:37:01;;;;;;;2.23;0.80;;;13.80;99.90;;;;;;5094568;28;20174;-76
2022/10/06 00:39:27;;;;;;;1.77;0.70;;;13.80;99.90;;;;;;5095975;28;20228;-76
2022/10/06 00:41:52;;;;;;;3.60;0.90;;;13.80;99.90;;;;;;5095744;28;20170;-76
2022/10/06 00:44:18;;;;;;;2.90;0.60;;;13.80;99.90;;;;;;5095630;28;20194;-76
2022/10/06 00:46:47;;;;;;;3.37;0.70;;;13.70;99.90;;;;;;5094371;28;20186;-75
2022/10/06 00:49:13;;;;;;;2.97;0.97;;;13.70;99.90;;;;;;5095886;28;20174;-76
2022/10/06 00:51:44;;;;;;;3.67;0.80;;;13.70;99.90;;;;;;5095883;28;20175;-76
2022/10/06 00:54:11;;;;;;;3.63;1.03;;;13.70;99.90;;;;;;5095635;28;20687;-76
2022/10/06 00:56:39;;;;;;;2.57;0.80;;;13.60;99.90;;;;;;5095442;28;20166;-76
2022/10/06 00:59:09;;;;;;;3.80;1.03;;;13.60;99.90;;;;;;5095698;28;20656;-75
2022/10/06 01:01:35;;;;;;;3.07;0.90;;;13.60;99.90;;;;;;5093101;28;20175;-76
2022/10/06 01:04:08;;;;;;;3.73;1.00;;;13.50;99.90;;;;;;5095238;28;20303;-76
2022/10/06 01:07:00;;;;;;;3.43;1.10;;;13.50;99.90;;;;;;5095338;28;20171;-76
2022/10/06 01:09:27;;;;;;;5.70;0.90;;;13.50;99.90;;;;;;5092666;28;20190;-75
2022/10/06 01:11:57;;;;;;;3.20;0.93;;;13.50;99.90;;;;;;5095144;28;20177;-76
2022/10/06 01:14:24;;;;;;;3.40;0.80;;;13.50;99.90;;;;;;5093606;28;20771;-76
2022/10/06 01:16:55;;;;;;;3.23;0.90;;;13.50;99.90;;;;;;5095118;28;20161;-76
2022/10/06 01:19:48;;;;;;;3.93;1.10;;;13.50;99.90;;;;;;5093994;28;20673;-76
2022/10/06 01:22:16;;;;;;;3.33;0.80;;;13.50;99.90;;;;;;5094970;28;20193;-76
2022/10/06 01:24:45;;;;;;;5.03;0.90;;;13.50;99.90;;;;;;5094816;28;20260;-76
2022/10/06 01:27:12;;;;;;;4.60;1.17;;;13.40;99.90;;;;;;5093617;28;20182;-76
2022/10/06 01:29:38;;;;;;;6.40;1.03;;;13.40;99.90;;;;;;5094778;28;20265;-76
2022/10/06 01:32:03;;;;;;;3.57;1.20;;;13.40;99.90;;;;;;5094765;28;20177;-77
2022/10/06 01:34:29;;;;;;;3.83;1.33;;;13.40;99.90;;;;;;5094837;28;20568;-76
2022/10/06 01:36:55;;;;;;;5.00;1.00;;;13.30;99.90;;;;;;5094639;28;20177;-76
2022/10/06 01:39:20;;;;;;;2.13;0.90;;;13.40;99.90;;;;;;5093385;28;20170;-74
2022/10/06 01:41:46;;;;;;;5.33;1.20;;;13.50;99.90;;;;;;5094582;28;20171;-76
2022/10/06 01:44:13;;;;;;;6.33;1.20;;;13.40;99.90;;;;;;5093136;28;20170;-76
2022/10/06 01:46:39;;;;;;;5.50;1.20;;;13.40;99.90;;;;;;5094704;28;20199;-74
2022/10/06 01:49:04;;;;;;;6.90;1.30;;;13.30;99.90;;;;;;5093273;28;20264;-75
2022/10/06 01:51:30;;;;;;;5.43;1.73;;;13.40;99.90;;;;;;5093077;28;20191;-75
2022/10/06 01:53:55;;;;;;;2.47;0.93;;;13.40;99.90;;;;;;5092899;28;20209;-76
2022/10/06 01:56:21;;;;;;;4.57;1.43;;;13.40;99.90;;;;;;5092764;28;20393;-77
2022/10/06 01:58:47;;;;;;;5.77;1.27;;;13.40;99.90;;;;;;5092304;28;20170;-76
2022/10/06 02:01:13;;;;;;;5.37;1.23;;;13.40;99.90;;;;;;5092912;28;20520;-76
2022/10/06 02:03:39;;;;;;;4.40;1.10;;;13.40;99.90;;;;;;5094163;28;20187;-76
2022/10/06 02:06:05;;;;;;;2.47;1.20;;;13.40;99.90;;;;;;5093996;28;20606;-76
2022/10/06 02:08:32;;;;;;;4.43;0.93;;;13.40;99.90;;;;;;5092706;28;20648;-74
2022/10/06 02:10:57;;;;;;;4.73;1.40;;;13.40;99.90;;;;;;5093508;28;20212;-76
2022/10/06 02:13:24;;;;;;;7.73;1.30;;;13.30;99.90;;;;;;5093728;28;20194;-74
2022/10/06 02:15:55;;;;;;;2.27;1.07;;;13.30;99.90;;;;;;5093652;28;20205;-76
2022/10/06 02:18:20;;;;;;;4.10;1.20;;;13.30;99.90;;;;;;5093869;28;20147;-76
2022/10/06 02:20:46;;;;;;;6.07;1.07;;;13.20;99.90;;;;;;5093756;28;20570;-76
2022/10/06 02:23:12;;;;;;;1.73;0.90;;;13.20;99.90;;;;;;5092508;28;20174;-75
2022/10/06 02:25:37;;;;;;;4.93;1.33;;;13.20;99.90;;;;;;5093810;28;20191;-75
2022/10/06 02:28:03;;;;;;;5.13;1.10;;;13.20;99.90;;;;;;5093691;28;20170;-76
2022/10/06 02:30:28;;;;;;;6.83;1.20;;;13.20;99.90;;;;;;5092372;28;20174;-76
2022/10/06 02:32:54;;;;;;;8.93;1.40;;;13.20;99.90;;;;;;5092234;28;20560;-75
2022/10/06 02:35:20;;;;;;;5.13;1.50;;;13.20;99.90;;;;;;5092119;28;20698;-76
2022/10/06 02:37:45;;;;;;;4.93;1.10;;;13.20;99.90;;;;;;5093494;28;20170;-75
2022/10/06 02:40:11;;;;;;;5.20;1.40;;;13.10;99.90;;;;;;5093385;28;20173;-75
2022/10/06 02:42:37;;;;;;;13.40;1.93;;;13.10;99.90;;;;;;5092528;28;20209;-76
2022/10/06 02:45:05;;;;;;;9.10;1.50;;;13.10;99.90;;;;;;5092125;28;20191;-76
2022/10/06 02:47:31;;;;;;;4.73;1.47;;;13.00;99.90;;;;;;5093302;28;20166;-76
2022/10/06 02:49:59;;;;;;;4.27;1.03;;;13.00;99.90;;;;;;5093505;28;20174;-76
2022/10/06 02:52:36;;;;;;;7.03;1.33;;;13.00;99.90;;;;;;5093312;28;20166;-75
2022/10/06 02:55:03;;;;;;;9.37;1.47;;;13.00;99.90;;;;;;5091851;28;20212;-76
2022/10/06 02:57:29;;;;;;;6.37;1.67;;;13.00;99.90;;;;;;5091834;28;20167;-76
2022/10/06 02:59:55;;;;;;;5.13;1.07;;;13.00;99.90;;;;;;5093214;28;20170;-75
2022/10/06 03:02:21;;;;;;;7.67;1.50;;;13.00;99.90;;;;;;5093492;28;20162;-76
2022/10/06 03:04:47;;;;;;;3.87;1.30;;;13.00;99.90;;;;;;5093114;28;20205;-76
2022/10/06 03:07:13;;;;;;;13.13;1.80;;;13.00;99.90;;;;;;5093063;28;20174;-76
2022/10/06 03:09:38;;;;;;;6.43;1.73;;;13.00;99.90;;;;;;5093375;28;20178;-75
2022/10/06 03:12:04;;;;;;;7.80;1.13;;;13.00;99.90;;;;;;5093088;28;20174;-76
2022/10/06 03:14:29;;;;;;;5.67;1.17;;;12.90;99.90;;;;;;5092796;28;20225;-75
2022/10/06 03:16:55;;;;;;;5.67;1.23;;;13.00;99.90;;;;;;5093055;28;20640;-76
2022/10/06 03:19:21;;;;;;;6.50;1.80;;;12.90;99.90;;;;;;5093022;28;20174;-76
2022/10/06 03:21:47;;;;;;;8.90;1.63;;;12.90;99.90;;;;;;5093177;28;20177;-76
2022/10/06 03:24:13;;;;;;;7.97;1.57;;;12.90;99.90;;;;;;5094779;28;20250;-76
2022/10/06 03:26:41;;;;;;;7.97;2.13;;;12.90;99.90;;;;;;5095868;28;20185;-74
2022/10/06 03:29:07;;;;;;;4.83;1.77;;;12.90;99.90;;;;;;5095819;28;20531;-76
2022/10/06 03:31:33;;;;;;;8.53;1.83;;;12.80;99.90;;;;;;5097075;28;20223;-75
2022/10/06 03:33:59;;;;;;;11.97;1.67;;;12.80;99.90;;;;;;5096912;28;20197;-74
2022/10/06 03:36:28;;;;;;;6.27;1.53;;;12.80;99.90;;;;;;5096908;28;20173;-76
2022/10/06 03:38:54;;;;;;;4.33;1.10;;;12.80;99.90;;;;;;5095695;28;20181;-75
2022/10/06 03:41:25;;;;;;;9.37;2.07;;;12.80;99.90;;;;;;5096928;28;20211;-74
2022/10/06 03:43:52;;;;;;;7.70;1.23;;;12.80;99.90;;;;;;5096849;28;20233;-76
2022/10/06 03:46:21;;;;;;;12.43;1.57;;;12.80;99.90;;;;;;5095397;28;20289;-75
2022/10/06 03:48:48;;;;;;;8.47;1.17;;;12.80;99.90;;;;;;5097029;28;20209;-75
2022/10/06 03:51:24;;;;;;;7.90;1.50;;;12.70;99.90;;;;;;5096933;28;20178;-75
2022/10/06 03:53:51;;;;;;;7.33;1.70;;;12.70;99.90;;;;;;5096573;28;20182;-76
2022/10/06 03:56:20;;;;;;;6.50;1.43;;;12.70;99.90;;;;;;5095323;28;20198;-76
2022/10/06 03:58:52;;;;;;;7.63;1.73;;;12.60;99.90;;;;;;5095261;28;20652;-76
2022/10/06 04:01:27;;;;;;;4.93;1.37;;;12.60;99.90;;;;;;5096829;28;20157;-76
2022/10/06 04:03:54;;;;;;;7.00;1.73;;;12.60;99.90;;;;;;5095146;28;20173;-75
2022/10/06 04:06:21;;;;;;;6.73;1.60;;;12.60;99.90;;;;;;5095153;28;20179;-76
2022/10/06 04:08:48;;;;;;;10.47;1.80;;;12.60;99.90;;;;;;5096376;28;20227;-75
2022/10/06 04:11:17;;;;;;;8.57;1.87;;;12.60;99.90;;;;;;5096339;28;20166;-76
2022/10/06 04:13:44;;;;;;;10.40;1.50;;;12.50;99.90;;;;;;5094920;28;20205;-75
2022/10/06 04:16:09;;;;;;;9.23;1.80;;;12.50;99.90;;;;;;5094624;28;20209;-75
2022/10/06 04:18:35;;;;;;;8.13;1.80;;;12.50;99.90;;;;;;5096212;28;20170;-75
2022/10/06 04:21:00;;;;;;;4.27;1.70;;;12.50;99.90;;;;;;5096381;28;20661;-75
2022/10/06 04:23:26;;;;;;;8.07;1.67;;;12.50;99.90;;;;;;5096040;28;20170;-75
2022/10/06 04:26:05;;;;;;;5.77;1.57;;;12.50;99.90;;;;;;5095969;28;20190;-75
2022/10/06 04:28:31;;;;;;;8.73;1.60;;;12.50;99.90;;;;;;5094723;28;20170;-75
2022/10/06 04:30:58;;;;;;;7.60;1.20;;;12.50;99.90;;;;;;5094680;28;20557;-75
2022/10/06 04:33:23;;;;;;;9.03;1.77;;;12.40;99.90;;;;;;5095861;28;20197;-75
2022/10/06 04:36:05;;;;;;;7.53;1.70;;;12.40;99.90;;;;;;5094531;28;20182;-76
2022/10/06 04:38:34;;;;;;;6.30;1.30;;;12.40;99.90;;;;;;5096293;28;20253;-75
2022/10/06 04:41:08;;;;;;;10.00;1.70;;;12.40;99.90;;;;;;5096002;28;20226;-75
2022/10/06 04:43:34;;;;;;;8.03;1.50;;;12.40;99.90;;;;;;5094503;28;20174;-75
2022/10/06 04:46:01;;;;;;;7.50;1.43;;;12.40;99.90;;;;;;5095583;28;20186;-75
2022/10/06 04:48:28;;;;;;;11.77;1.80;;;12.30;99.90;;;;;;5095600;28;20177;-75
2022/10/06 04:50:59;;;;;;;9.20;1.73;;;12.30;99.90;;;;;;5095761;28;20177;-75
2022/10/06 04:53:26;;;;;;;11.03;1.63;;;12.20;99.90;;;;;;5095492;28;20679;-76
2022/10/06 04:56:01;;;;;;;13.60;2.33;;;12.20;99.90;;;;;;5094137;28;20198;-75
2022/10/06 04:58:34;;;;;;;9.67;2.20;;;12.20;99.90;;;;;;5095397;28;20174;-75
2022/10/06 05:01:01;;;;;;;6.53;1.80;;;12.20;99.90;;;;;;5095398;28;20154;-75
2022/10/06 05:03:30;;;;;;;10.10;1.90;;;12.10;99.90;;;;;;5093921;28;20404;-74
2022/10/06 05:06:04;;;;;;;8.53;1.90;;;12.10;99.90;;;;;;5094870;28;20668;-75
2022/10/06 05:08:30;;;;;;;8.00;1.80;;;12.00;99.90;;;;;;5093652;28;20223;-75
2022/10/06 05:11:08;;;;;;;15.00;2.07;;;12.00;99.90;;;;;;5093659;28;20178;-74
2022/10/06 05:13:36;;;;;;;7.83;2.07;;;12.00;99.90;;;;;;5093459;28;20218;-74
2022/10/06 05:16:04;;;;;;;11.63;2.03;;;12.00;99.90;;;;;;5119010;22;20283;-77
2022/10/06 05:18:30;;;;;;;8.83;1.80;;;11.90;99.90;;;;;;5095013;28;20171;-76
2022/10/06 05:20:58;;;;;;;8.93;1.53;;;11.90;99.90;;;;;;5095311;28;20591;-77
2022/10/06 05:23:25;;;;;;;10.27;1.80;;;11.90;99.90;;;;;;5076796;28;20639;-77
2022/10/06 05:25:52;;;;;;;8.43;1.70;;;11.80;99.90;;;;;;5094870;28;20193;-76
2022/10/06 05:28:18;;;;;;;7.27;1.63;;;11.80;99.90;;;;;;5095071;28;20180;-76
2022/10/06 05:31:00;;;;;;;8.57;1.50;;;11.80;99.90;;;;;;5076724;28;20642;-77
2022/10/06 05:33:28;;;;;;;10.97;1.80;;;11.70;99.90;;;;;;5087203;28;20224;-78
2022/10/06 05:35:56;;;;;;;7.40;1.97;;;11.60;99.90;;;;;;5081542;28;20224;-78
2022/10/06 05:38:23;;;;;;;7.30;1.57;;;11.60;99.90;;;;;;5068831;28;20208;-77
2022/10/06 05:40:49;;;;;;;10.17;1.97;;;11.50;99.90;;;;;;5084653;28;20163;-77
2022/10/06 05:43:16;;;;;;;7.30;1.70;;;11.40;99.90;;;;;;5087824;28;20182;-76
2022/10/06 05:45:52;;;;;;;10.93;1.77;;;11.40;99.90;;;;;;5081293;28;20277;-77
2022/10/06 05:48:18;;;;;;;8.60;1.27;;;11.40;99.90;;;;;;5066975;28;20177;-77
2022/10/06 05:50:44;;;;;;;4.83;1.47;;;11.40;99.90;;;;;;5091652;28;20663;-77
2022/10/06 05:53:09;;;;;;;7.40;1.33;;;11.30;99.90;;;;;;5080491;28;20178;-77
2022/10/06 05:55:35;;;;;;;13.27;1.73;;;11.30;99.90;;;;;;5077771;28;20194;-76
2022/10/06 05:58:01;;;;;;;7.50;1.67;;;11.20;99.90;;;;;;5086713;28;20182;-77
2022/10/06 06:00:26;;;;;;;11.33;1.93;;;11.20;99.90;;;;;;5084590;28;20205;-77
2022/10/06 06:02:52;;;;;;;7.47;1.30;;;11.20;99.90;;;;;;5081217;28;20251;-77
2022/10/06 06:05:17;;;;;;;9.00;1.70;;;11.20;99.90;;;;;;5083497;28;20207;-76
2022/10/06 06:07:43;;;;;;;6.90;1.60;;;11.20;99.90;;;;;;5082516;28;20178;-77
2022/10/06 06:10:08;;;;;;;11.50;1.80;;;11.20;99.90;;;;;;5085896;28;20178;-77
2022/10/06 06:12:34;;;;;;;5.47;1.63;;;11.20;99.90;;;;;;5062108;28;20187;-77
2022/10/06 06:17:43;;;;;;;6.97;1.50;;;11.10;99.90;;;;;;5073772;28;20656;-77
2022/10/06 06:20:09;;;;;;;7.93;1.80;;;11.10;99.90;;;;;;5074157;28;20167;-76
2022/10/06 06:22:34;;;;;;;11.53;1.80;;;11.10;99.90;;;;;;5074084;28;20171;-78
2022/10/06 06:25:00;;;;;;;4.60;1.40;;;11.10;99.90;;;;;;5056661;28;20739;-78
2022/10/06 06:27:26;;;;;;;5.97;1.80;;;11.10;99.90;;;;;;5056173;28;20182;-78
2022/10/06 06:29:51;;;;;;;2.90;1.13;;;11.00;99.90;;;;;;5074251;28;20258;-78
2022/10/06 06:32:17;;;;;;;4.60;1.50;;;11.00;99.90;;;;;;5055803;28;20175;-78
2022/10/06 06:34:42;;;;;;;10.73;1.90;;;11.00;99.90;;;;;;5073586;28;20549;-78
2022/10/06 06:37:09;;;;;;;8.77;1.60;;;11.00;99.90;;;;;;5055633;28;20225;-78
2022/10/06 06:39:35;;;;;;;9.13;1.80;;;11.00;99.90;;;;;;5055690;28;20220;-77
2022/10/06 06:42:03;;;;;;;10.23;2.07;;;11.00;99.90;;;;;;5073482;28;20573;-77
2022/10/06 06:44:29;;;;;;;7.83;1.77;;;11.00;99.90;;;;;;5056100;28;20220;-77
2022/10/06 06:46:55;;;;;;;8.87;1.80;;;11.00;99.90;;;;;;5077377;28;20183;-77
2022/10/06 06:49:21;;;;;;;10.43;1.70;;;11.00;99.90;;;;;;5058256;28;20174;-78
2022/10/06 06:51:49;;;;;;;7.07;2.00;;;11.00;99.90;;;;;;5055665;28;20179;-78
2022/10/06 06:54:17;;;;;;;16.57;2.17;;;11.00;99.90;;;;;;5073745;28;20300;-78
2022/10/06 06:56:44;;;;;;;6.47;1.70;;;11.00;99.90;;;;;;5055210;28;20229;-78
2022/10/06 06:59:11;;;;;;;10.03;2.27;;;11.00;99.90;;;;;;5072545;28;20518;-78
2022/10/06 07:01:39;;;;;;;13.30;1.90;;;11.10;99.90;;;;;;5055282;28;20197;-78
2022/10/06 07:04:05;;;;;;;13.43;1.83;;;11.10;99.90;;;;;;5055288;28;20183;-78
2022/10/06 07:06:31;;;;;;;10.67;2.03;;;11.10;99.90;;;;;;5055248;28;20209;-78
2022/10/06 07:08:58;;;;;;;7.03;1.80;;;11.20;99.90;;;;;;5073150;28;20186;-78
2022/10/06 07:11:32;;;;;;;8.90;1.90;;;11.20;99.90;;;;;;5055040;28;20179;-78
2022/10/06 07:14:03;;;;;;;13.80;2.37;;;11.20;99.90;;;;;;5073324;28;20560;-78
2022/10/06 07:27:34;;;;;;;15.63;2.10;;;11.50;99.90;;;;;;5073216;28;20169;-78
2022/10/06 07:29:59;;;;;;;9.87;1.97;;;11.60;99.90;;;;;;5055013;28;20182;-77
2022/10/06 07:32:29;;;;;;;9.30;2.17;;;11.60;99.90;;;;;;5073131;28;20610;-77
2022/10/06 07:34:57;;;;;;;14.47;2.30;;;11.60;99.90;;;;;;5072854;28;20285;-77
2022/10/06 07:37:23;;;;;;;8.90;2.20;;;11.80;99.90;;;;;;5055075;28;20237;-78
2022/10/06 07:39:48;;;;;;;21.80;2.73;;;11.70;99.90;;;;;;5073210;28;20179;-78
2022/10/06 07:42:15;;;;;;;12.60;2.17;;;11.80;99.90;;;;;;5073262;28;20175;-77
2022/10/06 07:44:42;;;;;;;14.00;2.17;;;11.80;99.90;;;;;;5073944;28;20184;-78
2022/10/06 07:47:08;;;;;;;14.67;2.40;;;11.90;99.90;;;;;;5073748;28;20660;-78
2022/10/06 07:49:33;;;;;;;10.27;1.67;;;11.90;99.90;;;;;;5072700;28;20175;-77
2022/10/06 07:51:59;;;;;;;7.73;1.90;;;12.00;99.90;;;;;;5072578;28;20260;-76
2022/10/06 07:54:25;;;;;;;8.70;1.63;;;12.00;99.90;;;;;;5054470;28;20205;-77
2022/10/06 07:56:54;;;;;;;17.77;2.83;;;12.10;99.90;;;;;;5054522;28;20199;-77
2022/10/06 07:59:20;;;;;;;16.20;3.00;;;12.20;99.90;;;;;;5072497;28;20649;-77
2022/10/06 08:01:46;;;;;;;10.30;2.47;;;12.20;99.90;;;;;;5072484;28;20174;-77
2022/10/06 08:04:12;;;;;;;8.37;2.23;;;12.20;99.90;;;;;;5072740;28;20545;-76
2022/10/06 08:06:39;;;;;;;13.67;2.10;;;12.20;99.90;;;;;;5054826;28;20202;-77
2022/10/06 08:09:05;;;;;;;9.93;2.23;;;12.30;99.90;;;;;;5072488;28;20171;-77
2022/10/06 08:11:31;;;;;;;9.07;1.93;;;12.30;99.90;;;;;;5058093;28;20536;-77
2022/10/06 08:13:57;;;;;;;16.23;2.47;;;12.40;99.90;;;;;;5075935;28;20203;-77
2022/10/06 08:16:28;;;;;;;11.67;2.30;;;12.50;99.90;;;;;;5057505;28;20219;-77
2022/10/06 08:18:55;;;;;;;12.77;2.40;;;12.60;99.90;;;;;;5092513;28;20261;-77
2022/10/06 08:21:22;;;;;;;12.43;2.63;;;12.60;99.90;;;;;;5096522;28;20595;-77
2022/10/06 08:23:49;;;;;;;16.30;2.20;;;12.60;99.90;;;;;;5096216;28;20180;-77
2022/10/06 08:26:16;;;;;;;10.97;1.97;;;12.70;97.40;;;;;;5096065;28;20198;-77
2022/10/06 08:28:45;;;;;;;13.87;2.50;;;12.70;99.90;;;;;;5077984;28;20362;-77
2022/10/06 08:31:10;;;;;;;10.67;1.87;;;12.70;99.90;;;;;;5096062;28;20196;-77
2022/10/06 08:33:41;;;;;;;13.87;2.20;;;12.80;76.40;;;;;;5096187;28;20277;-77
2022/10/06 08:36:09;;;;;;;7.00;2.27;;;12.90;70.70;;;;;;5095776;28;20194;-77
2022/10/06 08:38:36;;;;;;;17.50;2.47;;;13.00;1.00;;;;;;5077784;28;20170;-77
2022/10/06 08:41:23;;;;;;;16.83;2.80;;;13.10;1.00;;;;;;5077645;28;20174;-77
2022/10/06 08:44:12;;;;;;;12.17;1.90;;;13.20;1.00;;;;;;5081566;28;20232;-77
2022/10/06 08:46:44;;;;;;;19.33;2.83;;;13.20;99.90;;;;;;5095370;28;20198;-77
2022/10/06 08:49:17;;;;;;;11.00;2.13;;;13.30;1.00;;;;;;5077586;28;20166;-77
2022/10/06 08:52:04;;;;;;;14.83;2.37;;;13.40;99.90;;;;;;5095944;28;20251;-77
2022/10/06 08:54:48;;;;;;;10.93;2.03;;;13.40;99.90;;;;;;5077357;28;20198;-77
2022/10/06 08:57:27;;;;;;;10.97;1.70;;;13.50;99.90;;;;;;5095837;28;20151;-78
2022/10/06 08:59:52;;;;;;;11.70;1.73;;;13.50;99.90;;;;;;5095580;28;20162;-78
2022/10/06 09:02:38;;;;;;;9.97;2.10;;;13.60;99.90;;;;;;5095446;28;20174;-77
2022/10/06 09:05:05;;;;;;;16.13;1.83;;;13.60;1.00;;;;;;5077312;28;20255;-77
2022/10/06 09:08:12;;;;;;;5.43;2.23;;;13.70;30.50;;;;;;5095430;28;20209;-78
2022/10/06 09:10:40;;;;;;;12.47;1.70;;;13.80;99.90;;;;;;5095436;28;20608;-77
2022/10/06 09:13:17;;;;;;;14.30;2.73;;;13.90;99.90;;;;;;5097014;28;20174;-78
2022/10/06 09:15:56;;;;;;;8.73;1.80;;;13.90;1.00;;;;;;5080950;28;20217;-79
2022/10/06 09:18:48;;;;;;;8.50;2.17;;;14.00;1.00;;;;;;5081060;28;20155;-78
2022/10/06 09:21:22;;;;;;;11.03;2.10;;;14.00;1.00;;;;;;5080664;28;20230;-78
2022/10/06 09:23:52;;;;;;;12.53;2.00;;;14.10;99.90;;;;;;5081267;28;20524;-79
2022/10/06 09:26:21;;;;;;;13.57;3.33;;;14.10;1.00;;;;;;5081932;28;20197;-79
2022/10/06 09:28:51;;;;;;;9.90;2.10;;;14.20;1.00;;;;;;5099635;28;20176;-79
2022/10/06 09:31:26;;;;;;;17.87;1.97;;;14.30;94.20;;;;;;5099591;28;20174;-79
2022/10/06 09:34:12;;;;;;;9.23;1.80;;;14.30;1.00;;;;;;5081058;28;20186;-79
2022/10/06 09:36:59;;;;;;;7.67;1.80;;;14.40;1.00;;;;;;5099315;28;20194;-78
2022/10/06 09:39:31;;;;;;;10.57;1.60;;;14.50;12.10;;;;;;5080364;28;20182;-78
2022/10/06 09:42:00;;;;;;;10.47;2.00;;;14.50;1.00;;;;;;5099768;28;20146;-78
2022/10/06 09:44:30;;;;;;;8.63;1.83;;;14.60;99.90;;;;;;5099285;28;20172;-78
2022/10/06 09:46:56;;;;;;;14.37;1.70;;;14.60;1.00;;;;;;5099017;28;20147;-78
2022/10/06 09:49:25;;;;;;;8.67;1.70;;;14.60;99.90;;;;;;5080984;28;20656;-78
2022/10/06 09:52:03;;;;;;;13.97;2.37;;;14.70;99.90;;;;;;5099765;28;20166;-78
2022/10/06 09:54:33;;;;;;;11.90;2.03;;;14.70;1.00;;;;;;5099224;28;20197;-78
2022/10/06 09:57:08;;;;;;;11.33;2.20;;;14.80;99.90;;;;;;5084033;28;20177;-78
2022/10/06 09:59:39;;;;;;;10.07;2.47;;;14.80;99.90;;;;;;5110010;28;20158;-78
2022/10/06 10:02:31;;;;;;;10.17;2.10;;;14.90;68.90;;;;;;5109998;28;20159;-78
2022/10/06 10:04:57;;;;;;;13.33;1.93;;;15.00;99.90;;;;;;5098803;28;20182;-79
2022/10/06 10:07:28;;;;;;;11.93;2.47;;;15.00;99.90;;;;;;5098401;28;20205;-78
2022/10/06 10:10:20;;;;;;;9.87;2.00;;;15.10;99.90;;;;;;5098833;28;20167;-78
2022/10/06 10:12:57;;;;;;;10.53;2.27;;;15.20;45.40;;;;;;5097663;28;20169;-79
2022/10/06 10:15:37;;;;;;;13.57;2.13;;;15.30;99.90;;;;;;5096320;28;20213;-79
2022/10/06 10:18:12;;;;;;;12.73;2.10;;;15.30;1.00;;;;;;5097602;28;20219;-78
2022/10/06 10:20:49;;;;;;;8.97;1.57;;;15.40;1.00;;;;;;5079081;28;20157;-79
2022/10/06 10:23:35;;;;;;;10.07;2.00;;;15.50;12.90;;;;;;5096651;28;20181;-79
2022/10/06 10:26:25;;;;;;;10.77;1.77;;;15.50;1.00;;;;;;5078778;28;20190;-78
2022/10/06 10:29:29;;;;;;;14.53;2.30;;;15.50;1.00;;;;;;5079128;28;20166;-79
2022/10/06 10:32:22;;;;;;;6.77;1.63;;;15.50;1.00;;;;;;5096635;28;20162;-78
2022/10/06 10:34:57;;;;;;;12.67;2.13;;;15.50;1.00;;;;;;5096737;28;20198;-78
2022/10/06 10:37:45;;;;;;;10.60;1.70;;;15.60;1.00;;;;;;5079011;28;20231;-78
2022/10/06 10:40:18;;;;;;;5.33;1.57;;;15.70;1.00;;;;;;5097451;28;20181;-78
2022/10/06 10:42:53;;;;;;;8.83;1.80;;;15.80;99.90;;;;;;5078224;28;20620;-78
2022/10/06 10:45:33;;;;;;;9.43;1.80;;;15.80;99.90;;;;;;5096091;28;20229;-78
2022/10/06 10:48:00;;;;;;;8.80;1.60;;;15.80;99.90;;;;;;5094138;28;20158;-77
2022/10/06 10:50:32;;;;;;;7.07;1.63;;;15.90;1.00;;;;;;5093529;28;20227;-77
2022/10/06 10:53:10;;;;;;;6.33;1.50;;;15.90;1.00;;;;;;5093834;28;20208;-77
2022/10/06 10:55:41;;;;;;;4.37;1.57;;;16.00;99.90;;;;;;5075734;28;20225;-78
2022/10/06 10:58:38;;;;;;;7.47;1.73;;;16.00;1.00;;;;;;5093555;28;20647;-78
2022/10/06 11:01:15;;;;;;;7.67;1.57;;;16.10;99.90;;;;;;5093409;28;20169;-77
2022/10/06 11:03:40;;;;;;;4.57;1.40;;;16.10;1.00;;;;;;5093836;28;20154;-77
2022/10/06 11:06:18;;;;;;;5.33;1.27;;;16.10;99.90;;;;;;5093712;28;20785;-78
2022/10/06 11:09:07;;;;;;;6.93;1.40;;;16.10;1.00;;;;;;5093204;28;20211;-77
2022/10/06 11:11:45;;;;;;;9.10;1.50;;;16.10;99.90;;;;;;5093795;28;20168;-77
2022/10/06 11:14:40;;;;;;;6.97;1.77;;;16.10;1.00;;;;;;5093059;28;20647;-77
2022/10/06 11:19:40;;;;;;;7.40;1.20;;;16.20;1.00;;;;;;5091074;28;20271;-76
2022/10/06 11:22:31;;;;;;;6.03;1.33;;;16.20;1.00;;;;;;5093398;28;20212;-76
2022/10/06 11:25:18;;;;;;;6.20;1.20;;;16.30;99.90;;;;;;5092165;28;20197;-76
2022/10/06 11:28:13;;;;;;;3.37;1.10;;;16.30;99.90;;;;;;5071982;28;20162;-76
2022/10/06 11:31:06;;;;;;;3.50;1.23;;;16.40;1.00;;;;;;5071915;28;20174;-76
2022/10/06 11:33:45;;;;;;;8.93;1.50;;;16.40;99.90;;;;;;5071641;28;20610;-76
2022/10/06 11:36:19;;;;;;;6.40;1.33;;;16.50;60.60;;;;;;5072921;28;20191;-75
2022/10/06 11:38:55;;;;;;;4.50;1.50;;;16.40;15.90;;;;;;5072135;28;20189;-76
2022/10/06 11:41:33;;;;;;;6.87;1.00;;;16.50;1.00;;;;;;5074374;28;20147;-76
2022/10/06 11:44:13;;;;;;;8.47;2.03;;;16.50;1.00;;;;;;5073631;28;20171;-75
2022/10/06 11:47:09;;;;;;;3.67;1.17;;;16.50;99.90;;;;;;5075794;28;20656;-74
2022/10/06 11:49:52;;;;;;;6.10;1.67;;;16.50;99.90;;;;;;5092253;28;20222;-76
2022/10/06 11:52:18;;;;;;;2.90;1.20;;;16.40;99.90;;;;;;5078987;28;20167;-76
2022/10/06 11:54:43;;;;;;;4.37;1.00;;;16.50;99.90;;;;;;5075606;28;20291;-76
2022/10/06 11:57:21;;;;;;;6.47;1.37;;;16.60;99.90;;;;;;5077673;28;20199;-75
2022/10/06 11:59:51;;;;;;;5.63;1.40;;;16.60;99.90;;;;;;5076990;28;20179;-77
2022/10/06 12:02:29;;;;;;;7.13;1.10;;;16.70;99.90;;;;;;5093267;28;20228;-76
2022/10/06 12:05:29;;;;;;;3.67;1.03;;;16.70;99.90;;;;;;5077272;28;20220;-76
2022/10/06 12:07:54;;;;;;;5.03;1.23;;;16.60;99.90;;;;;;5093290;28;20550;-76
2022/10/06 12:10:26;;;;;;;5.67;1.00;;;16.70;99.90;;;;;;5077164;28;20183;-76
2022/10/06 12:13:04;;;;;;;4.53;1.10;;;16.80;99.90;;;;;;5078453;28;20217;-76
2022/10/06 12:15:48;;;;;;;4.97;1.13;;;16.80;99.90;;;;;;5077854;28;20217;-75
2022/10/06 12:18:19;;;;;;;5.43;1.00;;;16.80;1.00;;;;;;5077595;28;20183;-76
2022/10/06 12:21:22;;;;;;;3.80;1.00;;;16.90;99.90;;;;;;5077235;28;20175;-76
2022/10/06 12:24:01;;;;;;;3.77;0.80;;;16.90;99.90;;;;;;5077872;28;20182;-76
2022/10/06 12:27:04;;;;;;;4.63;1.10;;;16.90;99.90;;;;;;5077829;28;20194;-76
2022/10/06 12:29:46;;;;;;;6.33;1.30;;;17.00;99.90;;;;;;5077814;28;20197;-76
2022/10/06 12:32:12;;;;;;;2.70;0.90;;;17.00;99.90;;;;;;5077544;28;20174;-76
2022/10/06 12:34:57;;;;;;;7.33;1.20;;;17.10;90.10;;;;;;5076919;28;20603;-76
2022/10/06 12:37:50;;;;;;;5.40;1.37;;;17.00;99.90;;;;;;5077320;28;20191;-75
2022/10/06 12:40:39;;;;;;;6.03;1.00;;;17.10;1.00;;;;;;5076888;28;20177;-76
2022/10/06 12:43:16;;;;;;;6.43;1.47;;;17.10;99.90;;;;;;5077079;28;20175;-76
2022/10/06 12:46:23;;;;;;;2.87;1.10;;;17.20;1.00;;;;;;5076112;28;20195;-76
2022/10/06 12:48:52;;;;;;;2.27;1.00;;;17.20;1.00;;;;;;5073066;28;20182;-76
2022/10/06 12:51:29;;;;;;;5.50;1.03;;;17.30;99.90;;;;;;5076259;28;20182;-75
2022/10/06 12:54:08;;;;;;;5.87;1.57;;;17.20;91.80;;;;;;5076434;28;20198;-76
2022/10/06 12:56:36;;;;;;;5.90;1.20;;;17.20;99.90;;;;;;5076288;28;20201;-76
2022/10/06 12:59:21;;;;;;;7.70;1.23;;;17.30;99.90;;;;;;5076419;28;20182;-76
2022/10/06 13:01:49;;;;;;;3.30;1.30;;;17.30;99.90;;;;;;5075771;28;20206;-77
2022/10/06 13:04:41;;;;;;;3.53;1.00;;;17.30;99.90;;;;;;5075746;28;20183;-77
2022/10/06 13:07:13;;;;;;;5.10;1.60;;;17.30;99.90;;;;;;5077229;28;20194;-77
2022/10/06 13:09:39;;;;;;;3.17;1.20;;;17.40;99.90;;;;;;5075869;28;20187;-77
2022/10/06 13:12:30;;;;;;;4.33;1.13;;;17.40;46.40;;;;;;5075836;28;20185;-76
2022/10/06 13:15:32;;;;;;;8.10;1.20;;;17.30;99.90;;;;;;5075892;28;20290;-76
2022/10/06 13:18:20;;;;;;;2.57;1.07;;;17.30;99.90;;;;;;5035088;28;20667;-76
2022/10/06 13:20:50;;;;;;;3.00;1.17;;;17.30;99.90;;;;;;5077648;28;20232;-76
2022/10/06 13:23:33;;;;;;;5.17;1.00;;;17.40;99.90;;;;;;5077257;28;20171;-76